createdAt,value
2023-03-26T00:02:05.701Z,18.50
2023-03-26T00:04:34.609Z,17.83
2023-03-26T00:07:03.181Z,18.03
2023-03-26T00:09:31.270Z,18.10
2023-03-26T00:12:00.811Z,18.03
2023-03-26T00:14:30.118Z,18.07
2023-03-26T00:16:58.196Z,17.97
2023-03-26T00:19:27.898Z,18.20
2023-03-26T00:21:57.741Z,18.30
2023-03-26T00:24:29.492Z,18.60
2023-03-26T00:26:57.572Z,18.57
2023-03-26T00:29:27.918Z,18.17
2023-03-26T00:31:55.911Z,18.37
2023-03-26T00:34:24.981Z,18.47
2023-03-26T00:36:54.682Z,19.10
2023-03-26T00:39:24.029Z,18.30
2023-03-26T00:41:54.520Z,18.33
2023-03-26T00:44:22.985Z,18.17
2023-03-26T00:46:52.673Z,18.27
2023-03-26T00:49:20.685Z,17.90
2023-03-26T00:51:48.672Z,18.50
2023-03-26T00:54:16.674Z,18.80
2023-03-26T00:56:44.720Z,18.23
2023-03-26T00:59:12.705Z,18.00
2023-03-26T01:01:40.789Z,18.23
2023-03-26T01:04:30.736Z,18.20
2023-03-26T01:07:02.823Z,18.40
2023-03-26T01:09:35.539Z,18.40
2023-03-26T01:12:08.139Z,18.73
2023-03-26T01:14:36.723Z,18.77
2023-03-26T01:17:07.298Z,18.27
2023-03-26T01:19:43.182Z,19.67
2023-03-26T01:22:14.733Z,18.40
2023-03-26T01:24:46.248Z,17.70
2023-03-26T01:27:24.392Z,18.50
2023-03-26T01:29:55.735Z,18.33
2023-03-26T01:32:34.435Z,17.90
2023-03-26T01:35:14.096Z,18.00
2023-03-26T01:37:52.851Z,18.60
2023-03-26T01:40:29.406Z,18.10
2023-03-26T01:43:03.886Z,18.57
2023-03-26T01:45:35.387Z,17.73
2023-03-26T01:48:04.128Z,18.60
2023-03-26T01:50:32.148Z,17.67
2023-03-26T01:53:00.225Z,18.50
2023-03-26T05:06:43.101Z,18.00
2023-03-26T05:09:11.682Z,18.70
2023-03-26T05:11:39.642Z,19.20
2023-03-26T05:14:07.601Z,18.70
2023-03-26T05:16:37.320Z,19.57
2023-03-26T05:19:07.083Z,19.35
2023-03-26T05:21:35.154Z,19.60
2023-03-26T05:24:03.677Z,18.73
2023-03-26T05:26:31.642Z,19.00
2023-03-26T05:28:59.690Z,19.25
2023-03-26T05:31:28.150Z,18.95
2023-03-26T05:33:56.933Z,18.58
2023-03-26T05:36:26.526Z,18.60
2023-03-26T05:38:54.484Z,18.50
2023-03-26T05:41:22.433Z,18.20
2023-03-26T05:43:51.237Z,18.25
2023-03-26T05:46:20.395Z,18.05
2023-03-26T05:48:48.476Z,17.95
2023-03-26T05:51:16.999Z,18.10
2023-03-26T05:53:46.404Z,17.63
2023-03-26T05:56:14.579Z,17.85
2023-03-26T05:58:43.642Z,18.15
2023-03-26T06:01:16.997Z,18.08
2023-03-26T06:03:47.077Z,17.83
2023-03-26T06:06:16.898Z,18.35
2023-03-26T06:08:48.886Z,18.35
2023-03-26T06:11:31.074Z,36.37
2023-03-26T06:13:59.180Z,36.67
2023-03-26T06:16:28.218Z,37.13
2023-03-26T06:18:57.301Z,36.30
2023-03-26T06:21:25.764Z,35.33
2023-03-26T06:23:55.708Z,35.40
2023-03-26T06:26:23.941Z,36.40
2023-03-26T06:28:51.880Z,35.23
2023-03-26T06:31:20.206Z,37.47
2023-03-26T06:33:48.882Z,33.87
2023-03-26T06:36:16.943Z,34.45
2023-03-26T06:38:45.657Z,34.87
2023-03-26T06:41:15.432Z,34.30
2023-03-26T06:43:43.450Z,24.23
2023-03-26T06:46:11.937Z,18.17
2023-03-26T06:48:42.060Z,17.30
2023-03-26T06:51:10.663Z,17.07
2023-03-26T06:53:38.756Z,17.47
2023-03-26T06:56:09.121Z,17.70
2023-03-26T06:58:38.672Z,16.80
2023-03-26T07:01:07.322Z,16.70
2023-03-26T07:03:35.504Z,18.33
2023-03-26T07:06:03.606Z,16.67
2023-03-26T07:08:31.960Z,16.70
2023-03-26T07:11:00.006Z,17.20
2023-03-26T07:13:27.955Z,16.80
2023-03-26T07:15:57.289Z,16.87
2023-03-26T07:18:25.411Z,17.07
2023-03-26T07:20:54.805Z,17.57
2023-03-26T07:23:23.493Z,16.90
2023-03-26T07:25:52.281Z,23.37
2023-03-26T07:28:26.749Z,18.17
2023-03-26T07:31:04.110Z,18.03
2023-03-26T07:33:38.368Z,16.57
2023-03-26T07:36:18.172Z,16.50
2023-03-26T07:39:04.784Z,17.00
2023-03-26T07:41:41.781Z,18.10
2023-03-26T07:44:28.809Z,17.83
2023-03-26T07:46:59.921Z,17.90
2023-03-26T07:49:30.297Z,16.57
2023-03-26T07:51:58.976Z,17.73
2023-03-26T07:54:27.474Z,17.37
2023-03-26T07:57:00.046Z,18.43
2023-03-26T07:59:34.341Z,18.27
2023-03-26T08:02:25.006Z,18.43
2023-03-26T08:05:10.565Z,18.63
2023-03-26T08:07:52.820Z,34.40
2023-03-26T08:10:27.121Z,40.80
2023-03-26T08:13:03.637Z,34.87
2023-03-26T08:15:39.273Z,35.67
2023-03-26T08:18:21.817Z,24.07
2023-03-26T08:20:54.394Z,31.97
2023-03-26T08:23:28.994Z,41.50
2023-03-26T08:26:02.567Z,36.07
2023-03-26T08:28:55.290Z,35.63
2023-03-26T08:31:33.396Z,36.43
2023-03-26T08:34:03.208Z,37.47
2023-03-26T08:36:31.236Z,37.50
2023-03-26T08:39:00.073Z,48.33
2023-03-26T08:42:13.325Z,39.20
2023-03-26T08:45:13.075Z,38.57
2023-03-26T08:48:14.732Z,39.23
2023-03-26T08:51:10.620Z,50.27
2023-03-26T08:54:23.027Z,48.00
2023-03-26T08:56:55.198Z,38.30
2023-03-26T08:59:51.286Z,38.73
2023-03-26T09:02:48.504Z,33.13
2023-03-26T09:05:54.897Z,36.57
2023-03-26T09:09:19.011Z,41.37
2023-03-26T09:12:26.149Z,35.03
2023-03-26T09:15:32.103Z,35.93
2023-03-26T09:18:24.818Z,38.83
2023-03-26T09:21:43.295Z,33.20
2023-03-26T09:24:27.749Z,39.53
2023-03-26T09:27:08.936Z,35.72
2023-03-26T09:30:15.664Z,34.70
2023-03-26T09:33:18.135Z,34.37
2023-03-26T09:35:53.436Z,36.20
2023-03-26T09:38:46.278Z,36.43
2023-03-26T09:41:18.406Z,35.40
2023-03-26T09:44:14.875Z,41.03
2023-03-26T09:46:55.852Z,19.47
2023-03-26T09:49:45.120Z,18.00
2023-03-26T09:52:27.131Z,19.73
2023-03-26T09:55:11.021Z,19.83
2023-03-26T09:58:02.380Z,31.50
2023-03-26T10:00:37.386Z,17.43
2023-03-26T10:03:40.946Z,19.00
2023-03-26T10:06:23.376Z,18.40
2023-03-26T10:09:03.653Z,15.00
2023-03-26T10:11:41.663Z,19.37
2023-03-26T10:14:20.705Z,17.33
2023-03-26T10:17:01.386Z,17.33
2023-03-26T10:19:46.602Z,17.55
2023-03-26T10:22:28.961Z,17.30
2023-03-26T10:25:23.180Z,16.98
2023-03-26T10:28:02.291Z,18.20
2023-03-26T10:30:46.149Z,18.50
2023-03-26T10:33:25.061Z,18.27
2023-03-26T10:36:03.344Z,20.42
2023-03-26T10:38:50.969Z,25.75
2023-03-26T10:41:28.299Z,24.92
2023-03-26T10:44:15.823Z,26.40
2023-03-26T10:47:15.714Z,26.70
2023-03-26T10:50:01.344Z,26.13
2023-03-26T10:52:35.945Z,28.52
2023-03-26T10:55:14.937Z,26.35
2023-03-26T10:57:46.538Z,21.27
2023-03-26T11:00:18.189Z,23.13
2023-03-26T11:02:57.048Z,28.45
2023-03-26T11:05:44.028Z,28.17
2023-03-26T11:08:19.264Z,28.63
2023-03-26T11:11:07.351Z,20.77
2023-03-26T11:13:45.921Z,17.95
2023-03-26T11:16:19.758Z,25.40
2023-03-26T11:18:55.570Z,25.73
2023-03-26T11:21:29.046Z,30.20
2023-03-26T11:24:13.670Z,28.25
2023-03-26T11:26:53.090Z,30.20
2023-03-26T11:29:36.573Z,28.92
2023-03-26T11:32:07.502Z,27.60
2023-03-26T11:34:41.515Z,16.75
2023-03-26T11:37:16.863Z,17.85
2023-03-26T11:40:02.961Z,17.20
2023-03-26T11:42:31.312Z,16.83
2023-03-26T11:45:03.522Z,16.80
2023-03-26T11:47:36.881Z,18.73
2023-03-26T11:50:09.239Z,18.40
2023-03-26T11:52:37.458Z,18.83
2023-03-26T11:55:06.671Z,17.33
2023-03-26T11:57:38.096Z,16.90
2023-03-26T12:00:16.842Z,18.08
2023-03-26T12:02:46.549Z,19.00
2023-03-26T12:05:20.319Z,17.95
2023-03-26T12:07:53.422Z,18.60
2023-03-26T12:10:32.153Z,17.40
2023-03-26T12:13:02.530Z,15.70
2023-03-26T12:15:32.152Z,15.70
2023-03-26T12:18:18.614Z,16.80
2023-03-26T12:20:48.249Z,16.67
2023-03-26T12:23:36.427Z,16.67
2023-03-26T12:26:15.914Z,16.67
2023-03-26T12:28:48.815Z,16.83
2023-03-26T12:31:19.519Z,16.48
2023-03-26T12:34:06.074Z,15.98
2023-03-26T12:36:36.425Z,16.42
2023-03-26T12:40:08.956Z,18.00
2023-03-26T12:44:51.244Z,17.65
2023-03-26T12:45:16.210Z,16.88
2023-03-26T12:47:58.182Z,17.17
2023-03-26T12:50:36.564Z,17.30
2023-03-26T12:53:20.129Z,17.13
2023-03-26T12:56:00.521Z,18.10
2023-03-26T12:58:48.026Z,19.20
2023-03-26T13:01:25.760Z,18.90
2023-03-26T13:04:13.435Z,18.92
2023-03-26T13:06:59.057Z,18.52
2023-03-26T13:09:58.485Z,18.88
2023-03-26T13:12:35.588Z,17.98
2023-03-26T13:15:26.641Z,16.55
2023-03-26T13:18:07.728Z,17.00
2023-03-26T13:20:50.177Z,16.80
2023-03-26T13:23:30.262Z,16.23
2023-03-26T13:26:11.442Z,16.77
2023-03-26T13:28:47.579Z,16.40
2023-03-26T13:31:23.040Z,17.10
2023-03-26T13:34:00.686Z,17.05
2023-03-26T13:36:37.721Z,17.65
2023-03-26T13:39:18.198Z,17.05
2023-03-26T13:42:19.550Z,17.45
2023-03-26T13:45:05.286Z,16.25
2023-03-26T13:47:37.907Z,18.50
2023-03-26T13:50:15.461Z,17.02
2023-03-26T13:52:51.637Z,16.45
2023-03-26T13:55:27.118Z,16.33
2023-03-26T13:58:03.227Z,17.33
2023-03-26T14:00:47.780Z,17.30
2023-03-26T14:03:24.348Z,17.30
2023-03-26T14:05:56.439Z,17.17
2023-03-26T14:08:32.662Z,17.13
2023-03-26T14:11:10.808Z,17.40
2023-03-26T14:13:47.326Z,17.13
2023-03-26T14:16:20.052Z,17.10
2023-03-26T14:18:54.253Z,16.75
2023-03-26T14:21:49.202Z,16.80
2023-03-26T14:25:05.121Z,16.90
2023-03-26T14:27:52.197Z,16.40
2023-03-26T14:30:59.868Z,16.75
2023-03-26T14:34:03.785Z,16.27
2023-03-26T14:36:52.978Z,15.77
2023-03-26T14:39:51.559Z,14.75
2023-03-26T14:42:24.235Z,11.70
2023-03-26T14:45:34.055Z,12.77
2023-03-26T14:48:26.620Z,12.20
2023-03-26T14:51:08.016Z,14.23
2023-03-26T14:53:40.120Z,12.00
2023-03-26T14:56:38.511Z,12.25
2023-03-26T14:59:37.620Z,7.17
2023-03-26T15:02:54.183Z,5.40
2023-03-26T15:06:02.281Z,3.00
2023-03-26T15:09:13.340Z,4.47
2023-03-26T15:11:47.021Z,3.13
2023-03-26T15:14:51.720Z,2.43
2023-03-26T15:17:47.610Z,1.90
2023-03-26T15:20:56.674Z,2.30
2023-03-26T15:23:47.394Z,3.13
2023-03-26T15:26:53.572Z,3.13
2023-03-26T15:29:49.210Z,3.03
2023-03-26T15:32:57.170Z,3.53
2023-03-26T15:35:53.786Z,3.03
2023-03-26T15:38:55.268Z,2.17
2023-03-26T15:41:30.304Z,1.73
2023-03-26T15:44:22.302Z,1.83
2023-03-26T15:47:00.389Z,1.43
2023-03-26T15:49:39.780Z,1.20
2023-03-26T15:52:23.027Z,1.37
2023-03-26T15:54:59.545Z,0.90
2023-03-26T15:57:34.605Z,2.70
2023-03-26T16:00:22.837Z,1.10
2023-03-26T16:03:09.235Z,0.80
2023-03-26T16:05:47.617Z,1.17
2023-03-26T16:08:25.642Z,0.73
2023-03-26T16:10:57.084Z,0.63
2023-03-26T16:13:38.625Z,1.00
2023-03-26T16:16:26.051Z,1.10
2023-03-26T16:19:19.432Z,0.60
2023-03-26T16:21:56.243Z,1.10
2023-03-26T16:24:28.149Z,0.77
2023-03-26T16:27:07.930Z,0.80
2023-03-26T16:30:09.514Z,0.70
2023-03-26T16:32:41.488Z,0.90
2023-03-26T16:35:39.654Z,0.87
2023-03-26T16:38:12.821Z,0.90
2023-03-26T16:41:00.059Z,1.40
2023-03-26T16:43:59.925Z,1.00
2023-03-26T16:46:37.442Z,1.00
2023-03-26T16:49:17.318Z,2.17
2023-03-26T16:51:57.360Z,0.90
2023-03-26T16:54:36.234Z,1.20
2023-03-26T16:57:17.385Z,0.70
2023-03-26T17:00:07.361Z,0.90
2023-03-26T17:02:54.762Z,1.00
2023-03-26T17:05:34.311Z,1.00
2023-03-26T17:08:13.377Z,1.13
2023-03-26T17:10:47.423Z,0.90
2023-03-26T17:13:24.176Z,1.17
2023-03-26T17:16:02.313Z,1.07
2023-03-26T17:18:42.837Z,0.70
2023-03-26T17:21:16.139Z,0.63
2023-03-26T17:24:03.956Z,0.93
2023-03-26T17:26:44.254Z,0.60
2023-03-26T17:29:28.986Z,0.60
2023-03-26T17:32:04.664Z,0.40
2023-03-26T17:34:46.844Z,1.20
2023-03-26T17:37:43.485Z,0.50
2023-03-26T17:40:54.553Z,0.43
2023-03-26T17:43:42.963Z,0.97
2023-03-26T17:46:23.576Z,0.40
2023-03-26T17:48:58.264Z,1.07
2023-03-26T17:51:40.313Z,0.40
2023-03-26T17:54:14.751Z,4.60
2023-03-26T17:56:43.198Z,0.70
2023-03-26T17:59:23.104Z,2.27
2023-03-26T18:01:55.420Z,0.90
2023-03-26T18:04:31.263Z,0.40
2023-03-26T18:07:44.071Z,21.43
2023-03-26T18:10:33.240Z,1.03
2023-03-26T18:13:15.279Z,0.93
2023-03-26T18:15:51.672Z,0.60
2023-03-26T18:18:23.632Z,0.30
2023-03-26T18:23:26.480Z,1.17
2023-03-26T18:25:59.225Z,0.53
2023-03-26T18:28:35.490Z,0.40
2023-03-26T18:31:11.175Z,0.47
2023-03-26T18:33:44.411Z,0.50
2023-03-26T18:36:13.469Z,0.80
2023-03-26T18:38:42.888Z,1.13
2023-03-26T18:41:20.006Z,0.67
2023-03-26T18:43:48.128Z,0.43
2023-03-26T18:46:17.056Z,0.63
2023-03-26T18:48:47.269Z,0.77
2023-03-26T18:51:22.473Z,1.47
2023-03-26T18:53:55.044Z,0.40
2023-03-26T18:56:33.682Z,0.40
2023-03-26T18:59:04.191Z,0.83
2023-03-26T19:01:34.128Z,0.30
2023-03-26T19:04:05.492Z,2.00
2023-03-26T19:06:38.284Z,0.60
2023-03-26T19:09:23.908Z,0.93
2023-03-26T19:12:06.789Z,0.43
2023-03-26T19:14:37.146Z,0.20
2023-03-26T19:17:07.810Z,0.30
2023-03-26T19:19:38.201Z,0.97
2023-03-26T19:22:07.130Z,0.37
2023-03-26T19:24:36.305Z,0.70
2023-03-26T19:27:06.428Z,0.40
2023-03-26T19:29:36.223Z,0.43
2023-03-26T19:32:06.327Z,0.50
2023-03-26T19:34:35.968Z,1.23
2023-03-26T19:37:17.236Z,0.53
2023-03-26T19:39:47.680Z,0.50
2023-03-26T19:42:20.558Z,1.20
2023-03-26T19:44:51.196Z,1.07
2023-03-26T19:47:29.086Z,0.97
2023-03-26T19:50:23.342Z,0.60
2023-03-26T19:53:15.423Z,0.50
2023-03-26T19:55:54.456Z,0.37
2023-03-26T19:58:24.032Z,0.87
2023-03-26T20:00:52.017Z,0.60
2023-03-26T20:03:26.633Z,0.80
2023-03-26T20:05:54.722Z,0.60
2023-03-26T20:08:27.127Z,0.33
2023-03-26T20:10:56.680Z,0.90
2023-03-26T20:13:26.223Z,0.73
2023-03-26T20:16:05.975Z,1.60
2023-03-26T20:18:34.565Z,0.40
2023-03-26T20:21:02.670Z,0.87
2023-03-26T20:23:30.657Z,1.70
2023-03-26T20:25:58.839Z,0.63
2023-03-26T20:28:28.151Z,0.50
2023-03-26T20:30:56.256Z,0.60
2023-03-26T20:33:26.816Z,0.77
2023-03-26T20:35:55.799Z,0.60
2023-03-26T20:38:36.662Z,0.70
2023-03-26T20:41:07.260Z,1.30
2023-03-26T20:43:36.681Z,0.90
2023-03-26T20:46:05.025Z,1.10
2023-03-26T20:48:33.062Z,0.50
2023-03-26T20:51:01.727Z,0.50
2023-03-26T20:53:30.449Z,0.50
2023-03-26T20:55:58.708Z,0.77
2023-03-26T20:58:31.497Z,0.80
2023-03-26T21:01:02.909Z,0.60
2023-03-26T21:03:31.052Z,0.97
2023-03-26T21:06:02.064Z,1.07
2023-03-26T21:08:35.395Z,0.70
2023-03-26T21:11:05.523Z,0.90
2023-03-26T21:13:38.968Z,0.77
2023-03-26T21:16:11.047Z,0.50
2023-03-26T21:18:39.763Z,0.90
2023-03-26T21:21:23.348Z,0.60
2023-03-26T21:23:59.333Z,0.57
2023-03-26T21:26:33.624Z,0.83
2023-03-26T21:29:09.652Z,0.50
2023-03-26T21:31:39.812Z,1.07
2023-03-26T21:34:09.706Z,0.80
2023-03-26T21:36:38.389Z,0.70
2023-03-26T21:39:07.229Z,0.60
2023-03-26T21:41:47.913Z,0.80
2023-03-26T21:44:16.537Z,0.83
2023-03-26T21:46:47.780Z,1.00
2023-03-26T21:49:18.234Z,0.80
2023-03-26T21:51:47.194Z,1.00
2023-03-26T21:54:26.229Z,1.00
2023-03-26T21:57:22.872Z,1.03
2023-03-26T22:00:02.482Z,0.60
2023-03-26T22:02:41.214Z,0.60
2023-03-26T22:05:15.995Z,0.87
2023-03-26T22:07:53.969Z,0.87
2023-03-26T22:10:22.152Z,0.60
2023-03-26T22:12:50.410Z,0.63
2023-03-26T22:15:19.259Z,0.60
2023-03-26T22:17:54.183Z,0.70
2023-03-26T22:20:25.221Z,1.10
2023-03-26T22:22:55.291Z,1.13
2023-03-26T22:25:24.982Z,2.80
2023-03-26T22:27:53.921Z,0.70
2023-03-26T22:30:21.978Z,0.50
2023-03-26T22:32:51.777Z,0.50
2023-03-26T22:35:20.382Z,1.63
2023-03-26T22:37:49.076Z,0.50
2023-03-26T22:40:17.913Z,0.60
2023-03-26T22:42:45.992Z,0.80
2023-03-26T22:45:14.273Z,0.50
2023-03-26T22:47:42.397Z,0.50
2023-03-26T22:50:12.232Z,0.57
2023-03-26T22:52:41.575Z,0.50
2023-03-26T22:55:11.904Z,0.63
2023-03-26T22:57:39.898Z,0.70
2023-03-26T23:00:16.215Z,1.10
2023-03-26T23:02:45.887Z,0.80
2023-03-26T23:05:17.492Z,0.87
2023-03-26T23:07:46.333Z,0.67
2023-03-26T23:10:14.656Z,1.17
2023-03-26T23:12:42.605Z,1.10
2023-03-26T23:15:11.602Z,0.60
2023-03-26T23:17:39.670Z,0.50
2023-03-26T23:20:14.902Z,0.63
2023-03-26T23:22:45.136Z,0.60
2023-03-26T23:25:13.075Z,1.20
2023-03-26T23:27:41.599Z,0.67
2023-03-26T23:30:11.834Z,0.50
2023-03-26T23:32:40.731Z,0.40
2023-03-26T23:35:09.380Z,0.80
2023-03-26T23:37:37.396Z,0.70
2023-03-26T23:40:10.278Z,0.67
2023-03-26T23:42:38.539Z,0.47
2023-03-26T23:45:08.555Z,1.00
2023-03-26T23:47:37.317Z,0.50
2023-03-26T23:50:06.411Z,0.87
2023-03-26T23:52:34.418Z,1.20
2023-03-26T23:55:02.592Z,0.97
2023-03-26T23:57:31.928Z,1.17
2023-03-26T23:59:59.977Z,1.13
